Noah Benítez

Chefscout - Tigre
11 Mär 2027
Donnerstag
Verarbeitung

Persönlichkeit

Anpassungsfähigkeit (9) Ehrgeiz (15) Kontroverse (9) Loyalität (13) Druck (4) Professionalität (7) Fairness (15) Temperament (10)

Profil

Trainerstil Demokratisch
Lizenz Kontinentale Pro
Entschlossenheit 7
Menschenführung 12
Motivation 12
Disziplin 13
Arbeitszufriedenheit
63%
Ermüdung
0%
Rolle Chefscout
Gehalt 30.8K p/W
Vertrag 14.03.2027

Leistung

Verhalten Gut
Trainingseffektivität
26%
Spielerentwicklung
25%
Verletzungsprävention
50%
Taktische Umsetzung
50%

Letzte Ereignisse

Spieler begutachtet jetzt
Nahm an einer Scouting-Besprechung teil jetzt
Empfahl ein Transferziel jetzt
Empfahl ein Transferziel jetzt
Empfahl ein Transferziel jetzt
Empfahl ein Transferziel jetzt
Vertragsverhandlung begonnen jetzt
Spieler begutachtet jetzt

Aktuell beobachtet

176
Spieler Verein Status Fähigkeit Vertrauen Beobachtet Zuletzt beobachtet Letzte Stimme
Lautaro Millán Aston Villa Aktiv 122 / 125 40% 2 10.03.2027 -
Afonso Assis Moreirense Aktiv 114 / 122 40% 2 10.03.2027 -
Facundo Garcés Alavés Aktiv 117 / 125 40% 1 09.03.2027 -
Morten Frendrup Genoa Aktiv 138 / 144 40% 1 09.03.2027 -
Amaury Morales Pumas UNAM Aktiv 113 / 113 40% 3 08.03.2027 -
Matvey Kislyak CSKA Moscow Aktiv 137 / 140 40% 1 08.03.2027 -
Antonino Gallo Lecce Aktiv 122 / 130 40% 1 07.03.2027 -
Nicolò Savona Nottingham Forest Aktiv 146 / 144 40% 1 07.03.2027 -
Ilja Ishkov Ural Aktiv 116 / 112 40% 1 04.03.2027 -
Darryl Bakola Padova Aktiv 89 / 112 40% 1 04.03.2027 -
Gilberto Mora Atlético Madrid Aktiv 118 / 127 40% 3 03.03.2027 -
Belal Ateya Al Ahly Aktiv 112 / 125 40% 2 03.03.2027 -
Israel Reyes CSKA Moscow Aktiv 123 / 147 40% 2 03.03.2027 -
Sergio Carreira Celta Aktiv 126 / 143 40% 1 03.03.2027 -
João Abreu Porto Aktiv 89 / 93 40% 1 02.03.2027 -
Ibrahim Maza Bayer Leverkusen Aktiv 140 / 145 40% 1 02.03.2027 -
Franco Romero Toluca Aktiv 125 / 124 40% 1 01.03.2027 -
Pedro Bicalho Qarabag Aktiv 139 / 125 40% 1 01.03.2027 -
Roberto Fernández Lokomotiv Moscow Aktiv 101 / 119 40% 1 28.02.2027 -
Zane Albarus Cambridge United Aktiv 90 / 100 40% 1 25.02.2027 -
Tristan Crama Millwall Aktiv 123 / 129 40% 1 25.02.2027 -
Vinicius Tobias Shakhtar Aktiv 137 / 129 40% 1 25.02.2027 -
Monty Batlhabane Polokwane City Aktiv 86 / 90 40% 2 21.02.2027 -
Nino Marcelli Slovan Bratislava Aktiv 114 / 122 40% 1 20.02.2027 -
Christian Krasnodar Aktiv 138 / 130 40% 2 18.02.2027 -
Kutlwano Letlhaku Ajax Cape Town Aktiv 131 / 115 40% 2 18.02.2027 -
Zé Vitor Nacional Aktiv 147 / 127 40% 1 18.02.2027 -
Luiz Mandaca Juventude Aktiv 128 / 117 40% 1 17.02.2027 -
Shea Lacey Wolverhampton Aktiv 117 / 136 40% 1 16.02.2027 -
Denis Pokotylo Chelyabinsk Aktiv 100 / 80 40% 1 16.02.2027 -
Henrique Carmo Zenit Aktiv 120 / 133 40% 2 13.02.2027 -
Matheus Alves CSKA Moscow Aktiv 141 / 127 40% 3 11.02.2027 -
Mfundo Vilakazi Kaizer Chiefs Aktiv 97 / 115 40% 2 11.02.2027 -
Diego Costa Krasnodar Aktiv 132 / 140 40% 1 10.02.2027 -
Doğucan Haspolat Westerlo Aktiv 140 / 118 40% 1 10.02.2027 -
Manu Rodríguez Gijón Aktiv 86 / 116 40% 1 10.02.2027 -
Mateus Mané Manchester United Aktiv 119 / 135 40% 1 10.02.2027 -
Ruslan Cherviakov Spartak Kostroma Aktiv 99 / 95 40% 2 09.02.2027 -
Yussif Saidu Zaragoza Aktiv 115 / 130 40% 2 07.02.2027 -
Jon Eceizabarrena Real Sociedad Aktiv 108 / 93 40% 1 07.02.2027 -
Lander Astiazarán Real Sociedad Aktiv 110 / 120 40% 3 05.02.2027 -
Thulani Erasmus Platinum Stars Aktiv 110 / 107 40% 3 04.02.2027 -
Joe Knight Stevenage Aktiv 100 / 95 40% 1 04.02.2027 -
Leandro Martins Benfica Aktiv 87 / 101 40% 1 03.02.2027 -
Francisco Pineda Veracruz Aktiv 97 / 109 40% 1 02.02.2027 -
Tomás Peixoto Porto Aktiv 99 / 89 40% 1 31.01.2027 -
Kai Enslin Charlton Athletic Aktiv 106 / 97 40% 1 31.01.2027 -
Agustín Medina Valencia Aktiv 107 / 123 40% 2 28.01.2027 -
Kirill Glebov CSKA Moscow Aktiv 128 / 130 40% 3 27.01.2027 -
Thiago Szkaluba Korona Aktiv 79 / 92 40% 2 26.01.2027 -
Martim Cunha Porto Aktiv 108 / 101 40% 1 26.01.2027 -
Bobby Clark Derby County Aktiv 108 / 125 40% 2 25.01.2027 -
Baba N'Diaye Chelyabinsk Aktiv 86 / 84 40% 1 23.01.2027 -
Joel Orlando Almagro Aktiv 101 / 120 40% 1 21.01.2027 -
Simphiwe Selepe Orlando Pirates Aktiv 93 / 108 40% 1 19.01.2027 -
Hakim Sulemana Medeama Aktiv 119 / 94 40% 1 18.01.2027 -
Otto Stange Hamburger SV Aktiv 98 / 133 40% 1 13.01.2027 -
Kevin Horváth Paksi Aktiv 95 / 104 40% 1 12.01.2027 -
Cemran Dansin Orlando Pirates Aktiv 103 / 113 40% 1 12.01.2027 -
Tomás Parmo Independiente Aktiv 125 / 126 40% 1 11.01.2027 -
Marek Sestak FK Senica Aktiv 117 / 120 40% 1 08.01.2027 -
Tiago Freitas Benfica Aktiv 103 / 111 40% 1 06.01.2027 -
André Miranda Porto Aktiv 98 / 105 40% 1 04.01.2027 -
Mandla Erasmus SuperSport United Aktiv 115 / 127 40% 1 02.12.2026 -
Mao Hosoya Sagan Tosu Verhandlung 134 / 135 90% 1 01.12.2026 Befürworten
Toni Fruk KV Mechelen Verhandlung 132 / 133 89% 1 01.12.2026 Befürworten
Konstantin Tyukavin Inter Aktiv 132 / 133 66% 1 01.12.2026 Befürworten
Amar Memić Casa Pia Verhandlung 127 / 128 62% 1 01.12.2026 Befürworten
Ramiro Ruiz Rodríguez Atlético Tucumán Aktiv 126 / 114 40% 2 29.11.2026 -
Oscar Hedvall Valerenga Aktiv 103 / 113 40% 2 29.11.2026 -
Bogdan Ovsyannikov Orenburg Aktiv 107 / 99 40% 2 29.11.2026 -
Luciano Gondou CSKA Moscow Aktiv 119 / 135 40% 1 29.11.2026 -
Daniil Frolkin Fakel Aktiv 108 / 96 40% 1 27.11.2026 -
Oleh Bilyk Epicentr Aktiv 111 / 97 40% 1 26.11.2026 -
Francisco Castillo Llaneros Aktiv 87 / 105 40% 1 26.11.2026 -
Daniil Khudyakov Sturm Graz Aktiv 114 / 125 40% 1 25.11.2026 -
Leopold Wahlstedt Rosenborg Aktiv 130 / 115 40% 2 24.11.2026 -
Timi Handanovic NK Domzale Aktiv 113 / 112 40% 2 23.11.2026 -
Alexandr Koryakin Krasnodar Aktiv 93 / 114 40% 1 23.11.2026 -
Sebastián Meza Huracán Aktiv 140 / 124 40% 2 21.11.2026 -
Patrik Demjén MTK Budapest Aktiv 95 / 101 40% 1 21.11.2026 -
Denis Adamov Zenit Aktiv 122 / 124 40% 1 20.11.2026 -
Roman Celentano FC Cincinnati Aktiv 122 / 116 40% 1 20.11.2026 -
Adam Jakubech MFK Michalovce Aktiv 106 / 108 40% 1 19.11.2026 -
Lukas Gütlbauer Wolfsberger AC Aktiv 102 / 113 40% 2 18.11.2026 -
James Mejia Cortulua Aktiv 113 / 128 40% 1 18.11.2026 -
Bradley Mabunda SuperSport United Aktiv 93 / 103 40% 3 16.11.2026 -
Rustam Yatimov Rostov Aktiv 113 / 118 40% 1 16.11.2026 -
Wandile Duba Maritzburg United Aktiv 105 / 105 40% 1 16.11.2026 -
Kévin Denkey FC Cincinnati Aktiv 129 / 129 40% 2 15.11.2026 -
Evidence Makgopa Orlando Pirates Aktiv 132 / 101 40% 1 15.11.2026 -
Etiosa Ighodaro Kaizer Chiefs Aktiv 95 / 114 40% 2 13.11.2026 -
Mauro Casoli Talleres Aktiv 115 / 102 40% 1 13.11.2026 -
Ştefan Târnovanu FCSB Aktiv 132 / 118 40% 1 13.11.2026 -
Conrad Wallem Austria Wien Aktiv 127 / 119 40% 2 12.11.2026 -
Victor Parada Spartak Moscow Aktiv 127 / 113 40% 1 12.11.2026 -
Mirko Kos Admira Wacker Aktiv 107 / 99 40% 1 11.11.2026 -
Tomislav Adolf Tomić Dugopolje Aktiv 109 / 112 40% 2 09.11.2026 -
Bradley Tau SuperSport United Aktiv 108 / 118 40% 2 09.11.2026 -
Stefano Moreyra Independiente Rivadavia Aktiv 122 / 128 40% 1 09.11.2026 -
Gonzalo Falcón Cienciano Aktiv 104 / 111 40% 2 07.11.2026 -
Antonio Đaković HNK Vukovar 1991 Aktiv 127 / 117 40% 1 07.11.2026 -
Đorđe Nikolić Cukaricki Aktiv 129 / 108 40% 1 06.11.2026 -
Luka Gavran Toronto FC Aktiv 119 / 113 40% 1 06.11.2026 -
Patrick Schulte Columbus Crew Aktiv 121 / 120 40% 1 05.11.2026 -
Ola Brynhildsen Bodo/Glimt Aktiv 139 / 118 40% 2 04.11.2026 -
Kyrylo Fesiun Shakhtar Aktiv 112 / 121 40% 1 04.11.2026 -
Juan Rocca Gimnasia y Tiro Aktiv 103 / 101 40% 1 04.11.2026 -
Mateo Mendoza Godoy Cruz Aktiv 111 / 121 40% 1 02.11.2026 -
Johan Brattberg Helsingborg Aktiv 111 / 114 40% 1 31.10.2026 -
Dominik Takáč Slovan Bratislava Aktiv 138 / 124 40% 1 31.10.2026 -
Toni Fuidias Girona Aktiv 114 / 113 40% 1 30.10.2026 -
Richard Ludha MFK Skalica Aktiv 97 / 108 40% 1 29.10.2026 -
Ľubomír Belko Viking Aktiv 144 / 115 40% 1 28.10.2026 -
Merchas Doski Viktoria Plzen Aktiv 136 / 117 40% 1 27.10.2026 -
Matt Freese New York City Aktiv 134 / 123 40% 3 25.10.2026 -
Enzo Vázquez Central Norte Aktiv 107 / 104 40% 2 25.10.2026 -
Lucas Lund Viborg Aktiv 121 / 121 40% 1 23.10.2026 -
Eric Meza Estudiantes Aktiv 121 / 116 40% 1 23.10.2026 -
Sean Zawadzki Columbus Crew Aktiv 127 / 123 40% 1 23.10.2026 -
Miguel Núñez Toronto FC Aktiv 105 / 102 40% 1 21.10.2026 -
Joaquín Bigo Tristán Suárez Aktiv 95 / 111 40% 1 20.10.2026 -
Luke Southwood Bristol Rovers Aktiv 84 / 112 40% 1 20.10.2026 -
Axel Pérez NK Domzale Aktiv 122 / 113 40% 1 19.10.2026 -
Angel Zamudio Sport Huancayo Aktiv 106 / 122 40% 1 18.10.2026 -
Pablo Ruiz Real Salt Lake Aktiv 128 / 114 40% 1 18.10.2026 -
Kimito Nono Sanfrecce Hiroshima Aktiv 111 / 121 40% 1 18.10.2026 -
Facundo Vila Estudiantes Aktiv 110 / 98 40% 1 15.10.2026 -
Nahuel Galardi Maipú Aktiv 113 / 105 40% 1 14.10.2026 -
Matías Dufour Sportivo Trinidense Aktiv 99 / 114 40% 1 14.10.2026 -
Sebastián Cocimano Nueva Chicago Aktiv 102 / 111 40% 1 14.10.2026 -
João Félix Olympiacos Aktiv 149 / 159 40% 1 14.10.2026 -
Tomás González Piast Aktiv 101 / 121 40% 1 12.10.2026 -
Esteban Glellel Quilmes Aktiv 118 / 119 40% 1 11.10.2026 -
Cristopher Varela Deportivo La Guaira Aktiv 113 / 111 40% 1 10.10.2026 -
Francisco Salerno Defensores Unidos Aktiv 102 / 105 40% 1 10.10.2026 -
Ignacio Lago Colón Aktiv 118 / 116 40% 2 09.10.2026 -
Daniel Karlsbakk Sarpsborg 08 Aktiv 129 / 122 40% 1 09.10.2026 -
Lautaro Maldonado Instituto Aktiv 123 / 117 40% 1 08.10.2026 -
Aldo Pérez Guarani Aktiv 106 / 115 40% 1 08.10.2026 -
Ali Ishaku Abia Warriors Aktiv 112 / 100 40% 1 05.10.2026 -
John Pulskamp Sporting Kansas City Aktiv 110 / 112 40% 1 05.10.2026 -
Luis Moreno Atletico Venezuela Aktiv 100 / 113 40% 1 04.10.2026 -
Jonás Luna Santa Clara Aktiv 97 / 125 40% 1 04.10.2026 -
Tomás Chancalay Minnesota United FC Aktiv 121 / 125 40% 1 03.10.2026 -
Wessam Abou Ali Columbus Crew Aktiv 138 / 124 40% 5 02.10.2026 -
Tomás Attis Dinamo Minsk Aktiv 116 / 105 40% 2 01.10.2026 -
Justo Giani Universidad Catolica Aktiv 126 / 120 40% 1 30.09.2026 -
Job Ochieng Real Sociedad Aktiv 111 / 109 40% 1 30.09.2026 -
Martín Ojeda Orlando City Aktiv 142 / 131 40% 1 29.09.2026 -
Germán Berterame Inter Miami CF Aktiv 141 / 131 40% 1 29.09.2026 -
Federico Girotti Alianza Lima Aktiv 129 / 124 40% 1 28.09.2026 -
Cheikh Sabaly Vancouver Whitecaps Aktiv 125 / 118 40% 1 27.09.2026 -
Diego García Malmo FF Aktiv 134 / 117 40% 1 26.09.2026 -
Louis Munteanu DC United Aktiv 130 / 126 40% 1 23.09.2026 -
Clemente Montes Universidad Catolica Aktiv 115 / 127 40% 1 21.09.2026 -
Rafael Navarro St. Louis CITY SC Aktiv 119 / 131 40% 2 19.09.2026 -
Alexander Aravena Portland Timbers Aktiv 117 / 125 40% 1 19.09.2026 -
Mandla Mahlangu Ajax Cape Town Aktiv 95 / 114 40% 1 18.09.2026 -
Fernando Mimbacas Juventud Aktiv 122 / 106 40% 1 17.09.2026 -
Theo Corbeanu Toronto FC Aktiv 116 / 126 40% 1 16.09.2026 -
Alexander Díaz Deportivo Riestra Aktiv 132 / 119 40% 1 15.09.2026 -
Juan Cruz de los Santos Nacional Aktiv 134 / 121 40% 1 14.09.2026 -
Agustín Alaniz Juventud Aktiv 117 / 117 40% 1 13.09.2026 -
Ruyery Blanco Alianza Petrolera Aktiv 98 / 104 40% 1 11.09.2026 -
Thiago Vecino O'Higgins Aktiv 97 / 104 40% 1 10.09.2026 -
Mauro Valiente Estudiantes Aktiv 102 / 110 40% 1 10.09.2026 -
Tadeo Allende Inter Miami CF Aktiv 124 / 125 40% 1 09.09.2026 -
Alonso Martínez New York City Aktiv 109 / 113 40% 1 09.09.2026 -
Jan Carlos Ángulo Deportes Tolima Aktiv 113 / 124 40% 1 07.08.2026 -
Joel Canchimbo Barranquilla Aktiv 94 / 115 40% 1 06.08.2026 -
Aldair Zárate Atletico Bucaramanga Aktiv 102 / 111 40% 1 05.08.2026 -
Mauro Silveira Junior Aktiv 115 / 114 40% 1 04.08.2026 -
Pedro Vite Pumas UNAM Aktiv 119 / 127 40% 1 03.08.2026 -
Stiven Vega Millonarios Aktiv 120 / 121 40% 1 03.08.2026 -
Adonis Frías Atlas Aktiv 117 / 127 40% 1 01.08.2026 -